The Lakes, Nevada
Current Conditions -  °F | °C
As of 1:53 PM on Monday 22 Dec 2014 (Local Time) from KVGT Reporting Station
Clear Clear  
Wind Chill: 23°   Ceiling: Unl
Heat Index: 23°   Visibility: 10mi
Dew Point:   Wind: 21mph
Humidity: 25%   Direction: 350°N
Pressure: 29.93"   Gusts: 31mph
Location:  36.14°N, 115.29°W
Report Text: KVGT 222153Z AUTO 35018G27KT 10SM CLR 23/02 A2993 RMK AO2 PK WND 34032/2103 SLP145 T02280017 TSNO
Loading
Personal Weather Stations






























Interactive Weather Map New forecast layout! Learn more

10-Day Weather Forecast

Advertisements
Track Severe Weather on mobile